sensor_id;sensor_type;location;lat;lon;timestamp;pressure;altitude;pressure_sealevel;temperature;humidity
60725;BME280;59881;36.722;-4.462;2023-02-14T00:00:51;102184.31;;;11.58;79.31
60725;BME280;59881;36.722;-4.462;2023-02-14T00:03:16;101868.75;;;10.26;79.87
60725;BME280;59881;36.722;-4.462;2023-02-14T00:05:42;102197.78;;;12.44;80.31
60725;BME280;59881;36.722;-4.462;2023-02-14T00:08:07;102127.09;;;11.95;80.36
60725;BME280;59881;36.722;-4.462;2023-02-14T00:10:33;102281.47;;;12.26;80.74
60725;BME280;59881;36.722;-4.462;2023-02-14T00:12:58;102208.50;;;12.41;80.82
60725;BME280;59881;36.722;-4.462;2023-02-14T00:15:24;102121.81;;;12.13;80.91
60725;BME280;59881;36.722;-4.462;2023-02-14T00:17:54;102165.06;;;12.47;80.64
60725;BME280;59881;36.722;-4.462;2023-02-14T00:20:24;102131.31;;;12.17;80.28
60725;BME280;59881;36.722;-4.462;2023-02-14T00:22:51;102249.38;;;12.34;80.69
60725;BME280;59881;36.722;-4.462;2023-02-14T00:25:17;102157.81;;;12.33;80.83
60725;BME280;59881;36.722;-4.462;2023-02-14T00:27:43;101964.94;;;11.11;80.61
60725;BME280;59881;36.722;-4.462;2023-02-14T00:30:11;101656.25;;;9.16;80.11
60725;BME280;59881;36.722;-4.462;2023-02-14T00:32:38;102160.25;;;12.20;80.73
60725;BME280;59881;36.722;-4.462;2023-02-14T00:35:04;102145.69;;;12.11;80.35
60725;BME280;59881;36.722;-4.462;2023-02-14T00:37:30;102141.78;;;12.01;80.24
60725;BME280;59881;36.722;-4.462;2023-02-14T00:39:56;102218.63;;;11.96;80.73
60725;BME280;59881;36.722;-4.462;2023-02-14T00:42:21;102134.81;;;12.00;80.89
60725;BME280;59881;36.722;-4.462;2023-02-14T00:44:47;102129.59;;;11.98;80.97
60725;BME280;59881;36.722;-4.462;2023-02-14T00:47:12;101705.44;;;9.33;80.33
60725;BME280;59881;36.722;-4.462;2023-02-14T00:49:38;102123.97;;;11.87;80.95
60725;BME280;59881;36.722;-4.462;2023-02-14T00:52:03;102055.66;;;11.45;80.61
60725;BME280;59881;36.722;-4.462;2023-02-14T00:54:29;101470.81;;;7.51;80.38
60725;BME280;59881;36.722;-4.462;2023-02-14T00:56:54;101698.09;;;9.21;80.92
60725;BME280;59881;36.722;-4.462;2023-02-14T00:59:20;102114.78;;;11.77;81.16
60725;BME280;59881;36.722;-4.462;2023-02-14T01:01:45;102152.22;;;11.85;81.44
60725;BME280;59881;36.722;-4.462;2023-02-14T01:04:11;101941.31;;;10.90;81.05
60725;BME280;59881;36.722;-4.462;2023-02-14T01:06:36;102207.56;;;11.88;81.30
60725;BME280;59881;36.722;-4.462;2023-02-14T01:09:03;102089.56;;;11.89;81.20
60725;BME280;59881;36.722;-4.462;2023-02-14T01:11:28;102088.72;;;11.88;81.12
60725;BME280;59881;36.722;-4.462;2023-02-14T01:13:56;102083.56;;;11.85;80.90
60725;BME280;59881;36.722;-4.462;2023-02-14T01:16:23;102074.16;;;11.79;80.63
60725;BME280;59881;36.722;-4.462;2023-02-14T01:18:49;101543.97;;;8.61;80.53
60725;BME280;59881;36.722;-4.462;2023-02-14T01:21:27;102069.34;;;11.70;80.86
60725;BME280;59881;36.722;-4.462;2023-02-14T01:23:56;101282.22;;;6.85;80.48
60725;BME280;59881;36.722;-4.462;2023-02-14T01:26:23;102025.13;;;11.39;81.12
60725;BME280;59881;36.722;-4.462;2023-02-14T01:28:49;102062.78;;;11.60;81.11
60725;BME280;59881;36.722;-4.462;2023-02-14T01:31:21;102050.03;;;11.51;80.60
60725;BME280;59881;36.722;-4.462;2023-02-14T01:33:48;102052.06;;;11.46;80.69
60725;BME280;59881;36.722;-4.462;2023-02-14T01:36:22;102062.00;;;11.41;80.78
60725;BME280;59881;36.722;-4.462;2023-02-14T01:38:56;102019.97;;;11.18;81.40
60725;BME280;59881;36.722;-4.462;2023-02-14T01:41:25;102000.28;;;11.07;81.74
60725;BME280;59881;36.722;-4.462;2023-02-14T01:44:00;102065.47;;;11.41;81.93
60725;BME280;59881;36.722;-4.462;2023-02-14T01:46:33;102047.25;;;11.36;81.33
60725;BME280;59881;36.722;-4.462;2023-02-14T01:49:17;102001.78;;;11.12;81.65
60725;BME280;59881;36.722;-4.462;2023-02-14T01:51:52;101689.16;;;9.25;81.82
60725;BME280;59881;36.722;-4.462;2023-02-14T01:54:19;101925.72;;;10.67;82.29
60725;BME280;59881;36.722;-4.462;2023-02-14T01:56:50;101921.66;;;10.60;82.37
60725;BME280;59881;36.722;-4.462;2023-02-14T01:59:20;102041.34;;;11.31;82.26
60725;BME280;59881;36.722;-4.462;2023-02-14T02:01:49;101654.22;;;8.83;82.20
60725;BME280;59881;36.722;-4.462;2023-02-14T02:04:18;102004.78;;;11.05;82.54
60725;BME280;59881;36.722;-4.462;2023-02-14T02:06:54;101964.63;;;10.81;82.50
60725;BME280;59881;36.722;-4.462;2023-02-14T02:11:56;102026.38;;;11.13;82.56
60725;BME280;59881;36.722;-4.462;2023-02-14T02:14:22;102089.81;;;10.91;82.79
60725;BME280;59881;36.722;-4.462;2023-02-14T02:17:18;102027.38;;;11.10;82.97
60725;BME280;59881;36.722;-4.462;2023-02-14T02:31:06;101881.91;;;10.26;84.27
60725;BME280;59881;36.722;-4.462;2023-02-14T02:36:45;102004.59;;;11.09;84.01
60725;BME280;59881;36.722;-4.462;2023-02-14T02:45:09;101872.22;;;10.27;83.35
60725;BME280;59881;36.722;-4.462;2023-02-14T02:47:56;102006.66;;;11.03;83.90
60725;BME280;59881;36.722;-4.462;2023-02-14T02:50:38;101361.91;;;7.22;83.32
60725;BME280;59881;36.722;-4.462;2023-02-14T02:53:32;102000.22;;;11.08;83.76
60725;BME280;59881;36.722;-4.462;2023-02-14T02:56:31;102004.66;;;11.08;83.68
60725;BME280;59881;36.722;-4.462;2023-02-14T02:59:33;101972.16;;;10.88;83.58
60725;BME280;59881;36.722;-4.462;2023-02-14T03:02:10;101994.88;;;11.10;83.99
60725;BME280;59881;36.722;-4.462;2023-02-14T03:04:41;101985.97;;;11.12;83.82
60725;BME280;59881;36.722;-4.462;2023-02-14T03:07:37;101957.63;;;10.98;83.74
60725;BME280;59881;36.722;-4.462;2023-02-14T03:10:14;101984.03;;;11.16;83.24
60725;BME280;59881;36.722;-4.462;2023-02-14T03:15:45;101981.31;;;11.17;83.42
60725;BME280;59881;36.722;-4.462;2023-02-14T03:21:36;101985.75;;;11.17;83.19
60725;BME280;59881;36.722;-4.462;2023-02-14T03:27:11;102123.88;;;10.95;82.69
60725;BME280;59881;36.722;-4.462;2023-02-14T03:38:19;101990.28;;;11.13;82.12
60725;BME280;59881;36.722;-4.462;2023-02-14T03:40:56;101410.03;;;7.62;81.95
60725;BME280;59881;36.722;-4.462;2023-02-14T03:46:36;101991.81;;;11.00;82.33
60725;BME280;59881;36.722;-4.462;2023-02-14T03:49:07;101960.28;;;10.80;82.00
60725;BME280;59881;36.722;-4.462;2023-02-14T03:51:35;101933.16;;;10.59;81.79
60725;BME280;59881;36.722;-4.462;2023-02-14T03:54:04;101505.72;;;7.94;82.09
60725;BME280;59881;36.722;-4.462;2023-02-14T03:56:34;101480.41;;;7.73;81.94
60725;BME280;59881;36.722;-4.462;2023-02-14T03:59:16;101986.50;;;10.83;82.08
60725;BME280;59881;36.722;-4.462;2023-02-14T04:02:06;101986.69;;;10.78;82.25
60725;BME280;59881;36.722;-4.462;2023-02-14T04:04:36;101978.16;;;10.73;82.22
60725;BME280;59881;36.722;-4.462;2023-02-14T04:07:15;101980.84;;;10.71;82.62
60725;BME280;59881;36.722;-4.462;2023-02-14T04:09:41;101990.50;;;10.72;82.25
60725;BME280;59881;36.722;-4.462;2023-02-14T04:12:07;101994.97;;;10.70;82.44
60725;BME280;59881;36.722;-4.462;2023-02-14T04:14:33;101510.94;;;7.74;81.81
60725;BME280;59881;36.722;-4.462;2023-02-14T04:16:59;101937.16;;;10.28;82.43
60725;BME280;59881;36.722;-4.462;2023-02-14T04:19:43;102002.03;;;10.70;82.75
60725;BME280;59881;36.722;-4.462;2023-02-14T04:22:09;101511.50;;;7.82;81.91
60725;BME280;59881;36.722;-4.462;2023-02-14T04:24:34;101985.38;;;10.69;82.33
60725;BME280;59881;36.722;-4.462;2023-02-14T04:27:00;101987.13;;;10.69;81.90
60725;BME280;59881;36.722;-4.462;2023-02-14T04:29:45;101879.47;;;10.03;82.01
60725;BME280;59881;36.722;-4.462;2023-02-14T04:32:17;101961.69;;;10.49;81.96
60725;BME280;59881;36.722;-4.462;2023-02-14T04:34:44;101959.22;;;10.46;81.62
60725;BME280;59881;36.722;-4.462;2023-02-14T04:37:10;101735.56;;;8.44;81.44
60725;BME280;59881;36.722;-4.462;2023-02-14T04:39:36;102008.50;;;10.63;81.83
60725;BME280;59881;36.722;-4.462;2023-02-14T04:42:02;101647.91;;;8.46;81.41
60725;BME280;59881;36.722;-4.462;2023-02-14T04:44:28;102047.91;;;10.66;81.74
60725;BME280;59881;36.722;-4.462;2023-02-14T04:46:53;101067.97;;;5.03;81.25
60725;BME280;59881;36.722;-4.462;2023-02-14T04:49:19;101980.88;;;10.52;81.67
60725;BME280;59881;36.722;-4.462;2023-02-14T04:51:45;101940.72;;;10.27;81.11
60725;BME280;59881;36.722;-4.462;2023-02-14T04:54:11;101996.66;;;10.71;81.08
60725;BME280;59881;36.722;-4.462;2023-02-14T04:56:36;101948.78;;;10.43;81.25
60725;BME280;59881;36.722;-4.462;2023-02-14T04:59:02;101955.41;;;10.51;81.07
60725;BME280;59881;36.722;-4.462;2023-02-14T05:01:28;102062.28;;;10.59;80.95
60725;BME280;59881;36.722;-4.462;2023-02-14T05:03:53;101855.34;;;9.93;80.51
60725;BME280;59881;36.722;-4.462;2023-02-14T05:06:19;101940.56;;;10.50;80.16
60725;BME280;59881;36.722;-4.462;2023-02-14T05:08:44;101987.63;;;10.77;80.17
60725;BME280;59881;36.722;-4.462;2023-02-14T05:11:10;101742.63;;;8.84;79.38
60725;BME280;59881;36.722;-4.462;2023-02-14T05:13:35;101827.03;;;9.79;79.65
60725;BME280;59881;36.722;-4.462;2023-02-14T05:16:01;101992.84;;;10.79;79.53
60725;BME280;59881;36.722;-4.462;2023-02-14T05:18:27;101903.03;;;10.25;79.40
60725;BME280;59881;36.722;-4.462;2023-02-14T05:20:53;102008.66;;;10.79;79.35
60725;BME280;59881;36.722;-4.462;2023-02-14T05:23:20;101258.75;;;6.17;78.83
60725;BME280;59881;36.722;-4.462;2023-02-14T05:25:50;102001.03;;;10.72;79.27
60725;BME280;59881;36.722;-4.462;2023-02-14T05:28:16;102005.56;;;10.69;79.01
60725;BME280;59881;36.722;-4.462;2023-02-14T05:30:42;101515.25;;;7.75;78.95
60725;BME280;59881;36.722;-4.462;2023-02-14T05:33:07;102002.31;;;10.64;79.36
60725;BME280;59881;36.722;-4.462;2023-02-14T05:35:33;102006.72;;;10.63;79.33
60725;BME280;59881;36.722;-4.462;2023-02-14T05:37:58;102113.84;;;10.64;79.77
60725;BME280;59881;36.722;-4.462;2023-02-14T05:40:25;102002.47;;;10.61;79.17
60725;BME280;59881;36.722;-4.462;2023-02-14T05:42:52;101325.78;;;6.43;79.03
60725;BME280;59881;36.722;-4.462;2023-02-14T05:45:18;101973.22;;;9.86;79.33
60725;BME280;59881;36.722;-4.462;2023-02-14T05:47:44;101958.16;;;9.90;79.21
60725;BME280;59881;36.722;-4.462;2023-02-14T05:50:10;101567.25;;;7.87;79.38
60725;BME280;59881;36.722;-4.462;2023-02-14T05:52:36;101892.47;;;9.87;79.50
60725;BME280;59881;36.722;-4.462;2023-02-14T05:55:03;102105.50;;;10.54;79.50
60725;BME280;59881;36.722;-4.462;2023-02-14T05:57:29;102015.28;;;10.49;79.41
60725;BME280;59881;36.722;-4.462;2023-02-14T05:59:54;102128.81;;;10.43;79.62
60725;BME280;59881;36.722;-4.462;2023-02-14T06:02:20;101706.53;;;8.47;79.07
60725;BME280;59881;36.722;-4.462;2023-02-14T06:04:45;101938.22;;;9.84;79.82
60725;BME280;59881;36.722;-4.462;2023-02-14T06:07:11;101967.34;;;10.00;79.97
60725;BME280;59881;36.722;-4.462;2023-02-14T06:09:36;101981.03;;;10.08;79.78
60725;BME280;59881;36.722;-4.462;2023-02-14T06:12:02;102016.81;;;10.34;79.89
60725;BME280;59881;36.722;-4.462;2023-02-14T06:14:27;101578.59;;;7.65;79.97
60725;BME280;59881;36.722;-4.462;2023-02-14T06:16:53;101942.22;;;9.93;80.28
60725;BME280;59881;36.722;-4.462;2023-02-14T06:19:18;101913.72;;;9.82;79.99
60725;BME280;59881;36.722;-4.462;2023-02-14T06:21:44;102023.22;;;10.48;79.62
60725;BME280;59881;36.722;-4.462;2023-02-14T06:24:09;102024.22;;;10.45;79.50
60725;BME280;59881;36.722;-4.462;2023-02-14T06:26:35;102013.91;;;10.41;79.04
60725;BME280;59881;36.722;-4.462;2023-02-14T06:29:01;102010.31;;;10.42;79.22
60725;BME280;59881;36.722;-4.462;2023-02-14T06:31:28;101944.59;;;9.99;79.40
60725;BME280;59881;36.722;-4.462;2023-02-14T06:33:54;101975.94;;;10.24;79.40
60725;BME280;59881;36.722;-4.462;2023-02-14T06:36:20;101929.66;;;10.00;79.02
60725;BME280;59881;36.722;-4.462;2023-02-14T06:38:46;102012.13;;;10.60;78.87
60725;BME280;59881;36.722;-4.462;2023-02-14T06:41:13;101572.63;;;7.84;78.36
60725;BME280;59881;36.722;-4.462;2023-02-14T06:43:42;101619.09;;;7.80;78.29
60725;BME280;59881;36.722;-4.462;2023-02-14T06:46:09;101553.91;;;7.71;78.20
60725;BME280;59881;36.722;-4.462;2023-02-14T06:48:34;101802.09;;;9.07;78.18
60725;BME280;59881;36.722;-4.462;2023-02-14T06:51:00;101890.47;;;9.52;78.51
60725;BME280;59881;36.722;-4.462;2023-02-14T06:53:26;102007.13;;;10.14;78.47
60725;BME280;59881;36.722;-4.462;2023-02-14T06:55:52;101986.72;;;9.99;78.70
60725;BME280;59881;36.722;-4.462;2023-02-14T06:58:17;102048.22;;;10.39;79.12
60725;BME280;59881;36.722;-4.462;2023-02-14T07:00:43;101900.22;;;9.50;79.22
60725;BME280;59881;36.722;-4.462;2023-02-14T07:03:09;101841.91;;;9.19;79.27
60725;BME280;59881;36.722;-4.462;2023-02-14T07:05:34;102169.63;;;10.33;79.62
60725;BME280;59881;36.722;-4.462;2023-02-14T07:08:01;101549.44;;;6.83;79.71
60725;BME280;59881;36.722;-4.462;2023-02-14T07:10:27;102058.44;;;10.66;80.01
60725;BME280;59881;36.722;-4.462;2023-02-14T07:12:52;102101.78;;;10.79;80.37
60725;BME280;59881;36.722;-4.462;2023-02-14T07:15:18;101968.66;;;10.31;79.76
60725;BME280;59881;36.722;-4.462;2023-02-14T07:17:43;101546.19;;;7.88;79.45
60725;BME280;59881;36.722;-4.462;2023-02-14T07:20:10;101902.50;;;9.79;79.08
60725;BME280;59881;36.722;-4.462;2023-02-14T07:22:36;102067.34;;;11.20;78.88
60725;BME280;59881;36.722;-4.462;2023-02-14T07:25:03;101870.22;;;9.55;78.37
60725;BME280;59881;36.722;-4.462;2023-02-14T07:27:29;101881.78;;;10.29;77.94
60725;BME280;59881;36.722;-4.462;2023-02-14T07:29:55;100949.47;;;4.83;76.75
60725;BME280;59881;36.722;-4.462;2023-02-14T07:32:20;101848.91;;;10.19;76.72
60725;BME280;59881;36.722;-4.462;2023-02-14T07:34:48;102066.09;;;11.65;76.09
60725;BME280;59881;36.722;-4.462;2023-02-14T07:37:13;102152.97;;;11.70;75.86
60725;BME280;59881;36.722;-4.462;2023-02-14T07:39:39;102023.59;;;11.52;75.27
60725;BME280;59881;36.722;-4.462;2023-02-14T07:42:05;102062.50;;;11.84;74.96
60725;BME280;59881;36.722;-4.462;2023-02-14T07:44:32;102073.66;;;11.90;74.40
60725;BME280;59881;36.722;-4.462;2023-02-14T07:46:58;102067.22;;;11.96;74.35
60725;BME280;59881;36.722;-4.462;2023-02-14T07:49:23;102073.28;;;11.98;73.97
60725;BME280;59881;36.722;-4.462;2023-02-14T07:51:49;102032.94;;;11.77;73.67
60725;BME280;59881;36.722;-4.462;2023-02-14T07:54:14;101474.53;;;8.48;73.49
60725;BME280;59881;36.722;-4.462;2023-02-14T07:56:40;101985.56;;;11.56;73.56
60725;BME280;59881;36.722;-4.462;2023-02-14T07:59:05;102072.66;;;12.10;73.28
60725;BME280;59881;36.722;-4.462;2023-02-14T08:01:31;102110.19;;;12.17;73.31
60725;BME280;59881;36.722;-4.462;2023-02-14T08:03:56;102088.75;;;12.23;72.98
60725;BME280;59881;36.722;-4.462;2023-02-14T08:06:22;102082.31;;;12.29;72.80
60725;BME280;59881;36.722;-4.462;2023-02-14T08:08:50;102076.06;;;12.30;72.66
60725;BME280;59881;36.722;-4.462;2023-02-14T08:11:16;102026.66;;;11.97;72.41
60725;BME280;59881;36.722;-4.462;2023-02-14T08:14:00;102074.50;;;12.43;72.48
60725;BME280;59881;36.722;-4.462;2023-02-14T08:16:25;101717.28;;;10.37;72.15
60725;BME280;59881;36.722;-4.462;2023-02-14T08:18:51;102080.78;;;12.58;72.17
60725;BME280;59881;36.722;-4.462;2023-02-14T08:21:16;101863.03;;;11.45;71.84
60725;BME280;59881;36.722;-4.462;2023-02-14T08:23:43;102033.53;;;12.34;71.65
60725;BME280;59881;36.722;-4.462;2023-02-14T08:26:08;102070.06;;;12.93;71.29
60725;BME280;59881;36.722;-4.462;2023-02-14T08:28:34;101990.44;;;12.50;70.96
60725;BME280;59881;36.722;-4.462;2023-02-14T08:31:02;102052.50;;;12.92;70.77
60725;BME280;59881;36.722;-4.462;2023-02-14T08:33:27;101756.78;;;11.24;70.16
60725;BME280;59881;36.722;-4.462;2023-02-14T08:35:53;102188.47;;;13.05;70.24
60725;BME280;59881;36.722;-4.462;2023-02-14T08:38:19;102024.25;;;12.92;69.93
60725;BME280;59881;36.722;-4.462;2023-02-14T08:40:45;102085.50;;;13.34;69.40
60725;BME280;59881;36.722;-4.462;2023-02-14T08:43:10;101417.03;;;9.33;68.68
60725;BME280;59881;36.722;-4.462;2023-02-14T08:45:36;102102.66;;;13.42;68.39
60725;BME280;59881;36.722;-4.462;2023-02-14T08:48:05;102107.78;;;13.45;67.95
60725;BME280;59881;36.722;-4.462;2023-02-14T08:50:31;102057.66;;;13.27;67.30
60725;BME280;59881;36.722;-4.462;2023-02-14T08:52:57;102064.13;;;13.37;67.27
60725;BME280;59881;36.722;-4.462;2023-02-14T08:55:23;102067.28;;;13.43;67.20
60725;BME280;59881;36.722;-4.462;2023-02-14T08:57:49;101637.25;;;10.56;66.60
60725;BME280;59881;36.722;-4.462;2023-02-14T09:00:15;102162.19;;;13.67;66.79
60725;BME280;59881;36.722;-4.462;2023-02-14T09:02:41;101461.28;;;9.95;66.41
60725;BME280;59881;36.722;-4.462;2023-02-14T09:05:06;102098.00;;;13.78;66.56
60725;BME280;59881;36.722;-4.462;2023-02-14T09:07:34;102086.94;;;13.85;66.48
60725;BME280;59881;36.722;-4.462;2023-02-14T09:09:59;101617.06;;;11.06;66.31
60725;BME280;59881;36.722;-4.462;2023-02-14T09:12:25;102098.19;;;14.05;66.51
60725;BME280;59881;36.722;-4.462;2023-02-14T09:14:51;102097.75;;;14.13;66.31
60725;BME280;59881;36.722;-4.462;2023-02-14T09:17:17;102050.63;;;13.87;66.21
60725;BME280;59881;36.722;-4.462;2023-02-14T09:19:42;102109.41;;;14.24;66.13
60725;BME280;59881;36.722;-4.462;2023-02-14T09:22:09;101505.78;;;10.68;65.55
60725;BME280;59881;36.722;-4.462;2023-02-14T09:24:37;102104.41;;;14.34;65.82
60725;BME280;59881;36.722;-4.462;2023-02-14T09:27:03;101659.41;;;11.52;64.98
60725;BME280;59881;36.722;-4.462;2023-02-14T09:29:29;101984.38;;;13.73;65.19
60725;BME280;59881;36.722;-4.462;2023-02-14T09:31:56;102103.69;;;14.46;64.83
60725;BME280;59881;36.722;-4.462;2023-02-14T09:34:23;101988.66;;;13.76;64.61
60725;BME280;59881;36.722;-4.462;2023-02-14T09:36:48;102111.94;;;14.56;64.90
60725;BME280;59881;36.722;-4.462;2023-02-14T09:39:32;101572.25;;;11.38;64.79
60725;BME280;59881;36.722;-4.462;2023-02-14T09:44:49;102107.72;;;14.68;64.94
60725;BME280;59881;36.722;-4.462;2023-02-14T09:49:49;102051.00;;;14.40;64.42
60725;BME280;59881;36.722;-4.462;2023-02-14T09:52:17;102115.75;;;14.81;64.37
60725;BME280;59881;36.722;-4.462;2023-02-14T09:54:47;102074.44;;;14.62;64.12
60725;BME280;59881;36.722;-4.462;2023-02-14T09:57:38;101988.06;;;14.15;64.01
60725;BME280;59881;36.722;-4.462;2023-02-14T10:11:08;102105.06;;;15.38;62.24
60725;BME280;59881;36.722;-4.462;2023-02-14T10:21:23;102100.47;;;16.22;60.09
60725;BME280;59881;36.722;-4.462;2023-02-14T10:24:08;101788.47;;;14.42;58.82
60725;BME280;59881;36.722;-4.462;2023-02-14T10:26:37;102038.53;;;16.07;59.12
60725;BME280;59881;36.722;-4.462;2023-02-14T10:29:11;102116.47;;;16.47;58.85
60725;BME280;59881;36.722;-4.462;2023-02-14T10:39:58;102086.50;;;17.08;56.19
60725;BME280;59881;36.722;-4.462;2023-02-14T10:51:12;102076.66;;;26.68;35.05
60725;BME280;59881;36.722;-4.462;2023-02-14T10:56:59;101759.75;;;24.60;35.13
60725;BME280;59881;36.722;-4.462;2023-02-14T10:59:46;102080.56;;;29.30;30.23
60725;BME280;59881;36.722;-4.462;2023-02-14T11:02:17;102078.81;;;31.53;27.02
60725;BME280;59881;36.722;-4.462;2023-02-14T11:04:45;102087.50;;;32.75;25.37
60725;BME280;59881;36.722;-4.462;2023-02-14T11:07:14;102030.56;;;31.14;26.35
60725;BME280;59881;36.722;-4.462;2023-02-14T11:09:40;101965.72;;;26.92;30.21
60725;BME280;59881;36.722;-4.462;2023-02-14T11:12:06;102121.53;;;24.52;35.25
60725;BME280;59881;36.722;-4.462;2023-02-14T11:14:36;102229.47;;;22.47;39.33
60725;BME280;59881;36.722;-4.462;2023-02-14T11:17:30;102100.47;;;21.52;41.75
60725;BME280;59881;36.722;-4.462;2023-02-14T11:20:01;102127.13;;;21.03;42.87
60725;BME280;59881;36.722;-4.462;2023-02-14T11:22:32;102114.84;;;20.60;44.10
60725;BME280;59881;36.722;-4.462;2023-02-14T11:25:03;102117.38;;;20.40;44.07
60725;BME280;59881;36.722;-4.462;2023-02-14T11:27:29;101946.72;;;18.86;44.19
60725;BME280;59881;36.722;-4.462;2023-02-14T11:29:55;101990.16;;;18.65;45.64
60725;BME280;59881;36.722;-4.462;2023-02-14T11:32:22;102113.56;;;19.25;46.24
60725;BME280;59881;36.722;-4.462;2023-02-14T11:35:03;102070.63;;;18.94;46.48
60725;BME280;59881;36.722;-4.462;2023-02-14T11:37:31;102049.00;;;18.64;46.68
60725;BME280;59881;36.722;-4.462;2023-02-14T11:40:00;102015.88;;;18.32;47.71
60725;BME280;59881;36.722;-4.462;2023-02-14T11:42:44;102099.97;;;18.49;48.14
60725;BME280;59881;36.722;-4.462;2023-02-14T11:45:38;102109.31;;;18.08;48.87
60725;BME280;59881;36.722;-4.462;2023-02-14T11:48:17;102025.16;;;17.33;48.99
60725;BME280;59881;36.722;-4.462;2023-02-14T11:50:55;102087.03;;;18.09;49.66
60725;BME280;59881;36.722;-4.462;2023-02-14T11:53:25;102110.69;;;18.14;49.79
60725;BME280;59881;36.722;-4.462;2023-02-14T11:55:52;102092.59;;;18.17;49.75
60725;BME280;59881;36.722;-4.462;2023-02-14T11:58:45;101983.84;;;17.28;49.94
60725;BME280;59881;36.722;-4.462;2023-02-14T12:01:23;102303.34;;;17.55;50.49
60725;BME280;59881;36.722;-4.462;2023-02-14T12:03:51;102029.81;;;17.19;51.05
60725;BME280;59881;36.722;-4.462;2023-02-14T12:06:23;102017.09;;;17.22;50.63
60725;BME280;59881;36.722;-4.462;2023-02-14T12:08:49;102084.78;;;17.68;50.48
60725;BME280;59881;36.722;-4.462;2023-02-14T12:11:22;102065.38;;;17.66;50.84
60725;BME280;59881;36.722;-4.462;2023-02-14T12:13:57;102066.63;;;17.73;50.72
60725;BME280;59881;36.722;-4.462;2023-02-14T12:16:39;102009.50;;;17.29;50.98
60725;BME280;59881;36.722;-4.462;2023-02-14T12:19:47;102027.50;;;17.14;51.00
60725;BME280;59881;36.722;-4.462;2023-02-14T12:22:18;101993.69;;;16.77;51.54
60725;BME280;59881;36.722;-4.462;2023-02-14T12:25:03;102032.63;;;17.04;52.14
60725;BME280;59881;36.722;-4.462;2023-02-14T12:30:18;102016.31;;;16.46;52.85
60725;BME280;59881;36.722;-4.462;2023-02-14T12:32:50;102068.44;;;16.74;53.28
60725;BME280;59881;36.722;-4.462;2023-02-14T12:40:42;102022.16;;;16.64;53.93
60725;BME280;59881;36.722;-4.462;2023-02-14T13:03:08;101972.31;;;15.51;56.38
60725;BME280;59881;36.722;-4.462;2023-02-14T13:06:41;101988.66;;;15.72;56.29
60725;BME280;59881;36.722;-4.462;2023-02-14T13:08:57;101966.06;;;15.65;56.70
60725;BME280;59881;36.722;-4.462;2023-02-14T13:11:38;101971.59;;;15.62;57.24
60725;BME280;59881;36.722;-4.462;2023-02-14T13:17:03;101563.59;;;13.41;57.18
60725;BME280;59881;36.722;-4.462;2023-02-14T13:22:28;101977.31;;;16.21;57.47
60725;BME280;59881;36.722;-4.462;2023-02-14T13:25:11;101961.38;;;16.08;57.34
60725;BME280;59881;36.722;-4.462;2023-02-14T13:27:38;101953.16;;;16.11;57.79
60725;BME280;59881;36.722;-4.462;2023-02-14T13:30:18;101905.59;;;15.30;57.71
60725;BME280;59881;36.722;-4.462;2023-02-14T13:32:47;101883.03;;;15.88;57.60
60725;BME280;59881;36.722;-4.462;2023-02-14T13:35:16;101961.13;;;16.37;57.47
60725;BME280;59881;36.722;-4.462;2023-02-14T13:37:51;101971.53;;;16.40;57.34
60725;BME280;59881;36.722;-4.462;2023-02-14T13:40:24;101958.69;;;16.34;57.52
60725;BME280;59881;36.722;-4.462;2023-02-14T13:42:52;101957.41;;;16.27;57.78
60725;BME280;59881;36.722;-4.462;2023-02-14T13:48:11;101890.78;;;15.79;58.18
60725;BME280;59881;36.722;-4.462;2023-02-14T13:51:05;101834.59;;;15.72;57.99
60725;BME280;59881;36.722;-4.462;2023-02-14T13:55:56;101957.28;;;16.54;57.25
60725;BME280;59881;36.722;-4.462;2023-02-14T13:58:22;101960.13;;;16.51;57.40
60725;BME280;59881;36.722;-4.462;2023-02-14T14:00:53;101946.31;;;16.46;57.60
60725;BME280;59881;36.722;-4.462;2023-02-14T14:06:05;101943.00;;;16.55;57.27
60725;BME280;59881;36.722;-4.462;2023-02-14T14:08:39;101953.81;;;16.15;57.39
60725;BME280;59881;36.722;-4.462;2023-02-14T14:11:47;101884.03;;;16.24;57.92
60725;BME280;59881;36.722;-4.462;2023-02-14T14:14:46;101939.84;;;16.37;58.42
60725;BME280;59881;36.722;-4.462;2023-02-14T14:16:57;101945.75;;;16.53;58.17
60725;BME280;59881;36.722;-4.462;2023-02-14T14:22:07;101935.16;;;16.41;57.65
60725;BME280;59881;36.722;-4.462;2023-02-14T14:24:34;101903.72;;;16.22;57.90
60725;BME280;59881;36.722;-4.462;2023-02-14T14:27:22;102026.66;;;16.25;58.06
60725;BME280;59881;36.722;-4.462;2023-02-14T14:29:52;101918.81;;;16.58;58.17
60725;BME280;59881;36.722;-4.462;2023-02-14T14:32:23;101923.84;;;16.87;57.75
60725;BME280;59881;36.722;-4.462;2023-02-14T14:34:52;101932.25;;;16.93;57.35
60725;BME280;59881;36.722;-4.462;2023-02-14T14:37:21;101877.06;;;16.71;57.29
60725;BME280;59881;36.722;-4.462;2023-02-14T14:39:52;101916.22;;;16.82;57.35
60725;BME280;59881;36.722;-4.462;2023-02-14T14:42:20;101883.63;;;16.54;57.52
60725;BME280;59881;36.722;-4.462;2023-02-14T14:45:02;101910.41;;;16.64;57.88
60725;BME280;59881;36.722;-4.462;2023-02-14T14:47:37;101994.09;;;16.47;58.47
60725;BME280;59881;36.722;-4.462;2023-02-14T14:50:07;101914.31;;;16.34;58.28
60725;BME280;59881;36.722;-4.462;2023-02-14T14:52:48;101829.88;;;15.76;59.51
60725;BME280;59881;36.722;-4.462;2023-02-14T14:55:27;101911.78;;;16.20;59.64
60725;BME280;59881;36.722;-4.462;2023-02-14T14:57:59;101908.84;;;16.12;60.44
60725;BME280;59881;36.722;-4.462;2023-02-14T15:00:33;101904.38;;;16.12;60.71
60725;BME280;59881;36.722;-4.462;2023-02-14T15:03:14;101891.00;;;16.01;59.92
60725;BME280;59881;36.722;-4.462;2023-02-14T15:05:42;101922.56;;;16.06;59.40
60725;BME280;59881;36.722;-4.462;2023-02-14T15:08:31;101929.88;;;16.02;58.99